sensor_id;sensor_type;location;lat;lon;timestamp;temperature;humidity
1055;DHT22;516;51.482;7.120;2023-06-22T00:02:54;21.40;99.90
1055;DHT22;516;51.482;7.120;2023-06-22T00:08:42;21.30;99.90
1055;DHT22;516;51.482;7.120;2023-06-22T00:14:30;21.20;99.90
1055;DHT22;516;51.482;7.120;2023-06-22T00:20:18;21.20;99.90
1055;DHT22;516;51.482;7.120;2023-06-22T00:26:05;21.10;99.90
1055;DHT22;516;51.482;7.120;2023-06-22T00:31:53;21.20;99.90
1055;DHT22;516;51.482;7.120;2023-06-22T00:37:40;21.10;99.90
1055;DHT22;516;51.482;7.120;2023-06-22T00:43:29;21.10;99.90
1055;DHT22;516;51.482;7.120;2023-06-22T00:49:11;21.10;99.90
1055;DHT22;516;51.482;7.120;2023-06-22T00:54:58;21.00;99.90
1055;DHT22;516;51.482;7.120;2023-06-22T01:00:51;20.90;99.90
1055;DHT22;516;51.482;7.120;2023-06-22T01:13:25;20.80;99.90
1055;DHT22;516;51.482;7.120;2023-06-22T01:25:28;20.60;99.90
1055;DHT22;516;51.482;7.120;2023-06-22T01:31:39;20.60;99.90
1055;DHT22;516;51.482;7.120;2023-06-22T01:37:28;20.50;99.90
1055;DHT22;516;51.482;7.120;2023-06-22T01:43:16;20.50;99.90
1055;DHT22;516;51.482;7.120;2023-06-22T01:49:05;20.50;99.90
1055;DHT22;516;51.482;7.120;2023-06-22T01:54:53;20.50;99.90
1055;DHT22;516;51.482;7.120;2023-06-22T02:00:48;20.50;99.90
1055;DHT22;516;51.482;7.120;2023-06-22T02:06:58;20.50;99.90
1055;DHT22;516;51.482;7.120;2023-06-22T02:12:46;20.50;99.90
1055;DHT22;516;51.482;7.120;2023-06-22T02:18:34;20.60;99.90
1055;DHT22;516;51.482;7.120;2023-06-22T02:24:23;20.50;99.90
1055;DHT22;516;51.482;7.120;2023-06-22T02:30:12;20.40;99.90
1055;DHT22;516;51.482;7.120;2023-06-22T02:36:00;20.40;99.90
1055;DHT22;516;51.482;7.120;2023-06-22T02:41:49;20.30;99.90
1055;DHT22;516;51.482;7.120;2023-06-22T02:51:14;20.10;99.90
1055;DHT22;516;51.482;7.120;2023-06-22T02:57:03;20.00;99.90
1055;DHT22;516;51.482;7.120;2023-06-22T03:02:50;19.90;99.90
1055;DHT22;516;51.482;7.120;2023-06-22T03:08:38;19.80;99.90
1055;DHT22;516;51.482;7.120;2023-06-22T03:14:26;19.80;99.90
1055;DHT22;516;51.482;7.120;2023-06-22T03:20:13;19.70;99.90
1055;DHT22;516;51.482;7.120;2023-06-22T03:26:01;19.60;99.90
1055;DHT22;516;51.482;7.120;2023-06-22T03:31:49;19.50;99.90
1055;DHT22;516;51.482;7.120;2023-06-22T03:37:37;19.40;99.90
1055;DHT22;516;51.482;7.120;2023-06-22T03:43:25;19.40;99.90
1055;DHT22;516;51.482;7.120;2023-06-22T03:49:11;19.40;99.90
1055;DHT22;516;51.482;7.120;2023-06-22T03:54:59;19.50;99.90
1055;DHT22;516;51.482;7.120;2023-06-22T04:00:52;19.50;99.90
1055;DHT22;516;51.482;7.120;2023-06-22T04:06:39;19.60;99.90
1055;DHT22;516;51.482;7.120;2023-06-22T04:12:27;19.70;99.90
1055;DHT22;516;51.482;7.120;2023-06-22T04:18:16;19.80;99.90
1055;DHT22;516;51.482;7.120;2023-06-22T04:24:04;19.90;99.90
1055;DHT22;516;51.482;7.120;2023-06-22T04:29:52;19.80;99.90
1055;DHT22;516;51.482;7.120;2023-06-22T04:35:40;19.90;99.90
1055;DHT22;516;51.482;7.120;2023-06-22T04:41:28;19.90;99.90
1055;DHT22;516;51.482;7.120;2023-06-22T04:51:16;19.80;99.90
1055;DHT22;516;51.482;7.120;2023-06-22T04:57:05;19.80;99.90
1055;DHT22;516;51.482;7.120;2023-06-22T05:02:57;19.80;99.90
1055;DHT22;516;51.482;7.120;2023-06-22T05:08:45;19.80;99.90
1055;DHT22;516;51.482;7.120;2023-06-22T05:14:33;19.80;99.90
1055;DHT22;516;51.482;7.120;2023-06-22T05:20:21;19.90;99.90
1055;DHT22;516;51.482;7.120;2023-06-22T05:26:09;19.90;99.90
1055;DHT22;516;51.482;7.120;2023-06-22T05:31:57;19.90;99.90
1055;DHT22;516;51.482;7.120;2023-06-22T05:37:45;19.90;99.90
1055;DHT22;516;51.482;7.120;2023-06-22T05:43:33;19.90;99.90
1055;DHT22;516;51.482;7.120;2023-06-22T05:49:13;20.10;99.90
1055;DHT22;516;51.482;7.120;2023-06-22T05:55:02;20.10;99.90
1055;DHT22;516;51.482;7.120;2023-06-22T06:00:50;20.30;99.90
1055;DHT22;516;51.482;7.120;2023-06-22T06:06:37;20.50;99.90
1055;DHT22;516;51.482;7.120;2023-06-22T06:12:25;20.50;99.90
1055;DHT22;516;51.482;7.120;2023-06-22T06:18:13;20.50;99.90
1055;DHT22;516;51.482;7.120;2023-06-22T06:24:01;20.40;99.90
1055;DHT22;516;51.482;7.120;2023-06-22T06:29:50;20.50;99.90
1055;DHT22;516;51.482;7.120;2023-06-22T06:35:37;20.60;99.90
1055;DHT22;516;51.482;7.120;2023-06-22T06:41:25;20.70;99.90
1055;DHT22;516;51.482;7.120;2023-06-22T06:57:01;21.30;99.90
1055;DHT22;516;51.482;7.120;2023-06-22T07:02:50;21.20;99.90
1055;DHT22;516;51.482;7.120;2023-06-22T07:05:55;21.20;99.90
1055;DHT22;516;51.482;7.120;2023-06-22T07:08:21;21.20;99.90
1055;DHT22;516;51.482;7.120;2023-06-22T07:14:08;21.30;99.90
1055;DHT22;516;51.482;7.120;2023-06-22T07:19:56;21.40;99.90
1055;DHT22;516;51.482;7.120;2023-06-22T07:25:44;21.40;99.90
1055;DHT22;516;51.482;7.120;2023-06-22T07:31:31;21.50;99.90
1055;DHT22;516;51.482;7.120;2023-06-22T07:37:19;21.60;99.90
1055;DHT22;516;51.482;7.120;2023-06-22T07:43:07;22.00;99.90
1055;DHT22;516;51.482;7.120;2023-06-22T07:48:55;22.30;99.90
1055;DHT22;516;51.482;7.120;2023-06-22T07:54:42;21.70;99.90
1055;DHT22;516;51.482;7.120;2023-06-22T08:00:30;21.60;99.90
1055;DHT22;516;51.482;7.120;2023-06-22T08:06:18;21.70;99.90
1055;DHT22;516;51.482;7.120;2023-06-22T08:12:06;21.70;99.90
1055;DHT22;516;51.482;7.120;2023-06-22T08:17:37;21.50;99.90
1055;DHT22;516;51.482;7.120;2023-06-22T08:23:25;21.60;99.90
1055;DHT22;516;51.482;7.120;2023-06-22T08:29:12;21.80;99.90
1055;DHT22;516;51.482;7.120;2023-06-22T08:35:00;21.90;99.90
1055;DHT22;516;51.482;7.120;2023-06-22T08:40:48;22.40;99.90
1055;DHT22;516;51.482;7.120;2023-06-22T08:46:35;22.50;99.90
1055;DHT22;516;51.482;7.120;2023-06-22T08:52:24;22.60;99.90
1055;DHT22;516;51.482;7.120;2023-06-22T08:58:12;22.60;99.90
1055;DHT22;516;51.482;7.120;2023-06-22T09:04:00;22.90;99.90
1055;DHT22;516;51.482;7.120;2023-06-22T09:09:48;23.10;99.90
1055;DHT22;516;51.482;7.120;2023-06-22T09:15:36;23.00;99.90
1055;DHT22;516;51.482;7.120;2023-06-22T09:21:24;23.70;99.90
1055;DHT22;516;51.482;7.120;2023-06-22T09:27:12;24.30;99.90
1055;DHT22;516;51.482;7.120;2023-06-22T09:33:00;24.50;99.90
1055;DHT22;516;51.482;7.120;2023-06-22T09:38:49;24.70;99.90
1055;DHT22;516;51.482;7.120;2023-06-22T09:44:42;24.80;99.90
1055;DHT22;516;51.482;7.120;2023-06-22T09:50:30;26.00;99.90
1055;DHT22;516;51.482;7.120;2023-06-22T09:56:18;25.70;99.90
1055;DHT22;516;51.482;7.120;2023-06-22T10:02:06;25.20;99.90
1055;DHT22;516;51.482;7.120;2023-06-22T10:07:54;26.00;99.90
1055;DHT22;516;51.482;7.120;2023-06-22T10:13:42;26.80;99.90
1055;DHT22;516;51.482;7.120;2023-06-22T10:19:30;26.80;99.90
1055;DHT22;516;51.482;7.120;2023-06-22T10:25:18;27.00;99.90
1055;DHT22;516;51.482;7.120;2023-06-22T10:31:05;27.30;99.90
1055;DHT22;516;51.482;7.120;2023-06-22T10:36:53;27.50;99.90
1055;DHT22;516;51.482;7.120;2023-06-22T10:42:41;28.70;99.90
1055;DHT22;516;51.482;7.120;2023-06-22T10:51:50;27.10;99.90
1055;DHT22;516;51.482;7.120;2023-06-22T10:57:38;27.00;99.90
1055;DHT22;516;51.482;7.120;2023-06-22T11:03:29;26.70;99.90
1055;DHT22;516;51.482;7.120;2023-06-22T11:06:11;26.20;99.90
1055;DHT22;516;51.482;7.120;2023-06-22T11:08:36;26.00;99.90
1055;DHT22;516;51.482;7.120;2023-06-22T11:14:25;25.90;99.90
1055;DHT22;516;51.482;7.120;2023-06-22T11:20:12;25.70;99.90
1055;DHT22;516;51.482;7.120;2023-06-22T11:26:00;25.40;99.90
1055;DHT22;516;51.482;7.120;2023-06-22T11:31:47;25.10;99.90
1055;DHT22;516;51.482;7.120;2023-06-22T11:37:35;24.60;99.90
1055;DHT22;516;51.482;7.120;2023-06-22T11:43:23;24.00;99.90
1055;DHT22;516;51.482;7.120;2023-06-22T11:52:33;23.00;99.90
1055;DHT22;516;51.482;7.120;2023-06-22T11:58:21;22.60;99.90
1055;DHT22;516;51.482;7.120;2023-06-22T12:04:09;22.30;99.90
1055;DHT22;516;51.482;7.120;2023-06-22T12:09:58;21.90;99.90
1055;DHT22;516;51.482;7.120;2023-06-22T12:15:46;21.80;99.90
1055;DHT22;516;51.482;7.120;2023-06-22T12:21:34;21.90;99.90
1055;DHT22;516;51.482;7.120;2023-06-22T12:27:21;21.70;99.90
1055;DHT22;516;51.482;7.120;2023-06-22T12:33:10;21.70;99.90
1055;DHT22;516;51.482;7.120;2023-06-22T12:35:41;21.80;99.90
1055;DHT22;516;51.482;7.120;2023-06-22T12:38:07;21.80;99.90
1055;DHT22;516;51.482;7.120;2023-06-22T12:43:55;21.60;99.90
1055;DHT22;516;51.482;7.120;2023-06-22T12:53:05;21.70;99.90
1055;DHT22;516;51.482;7.120;2023-06-22T12:58:53;21.70;99.90
1055;DHT22;516;51.482;7.120;2023-06-22T13:04:41;21.70;99.90
1055;DHT22;516;51.482;7.120;2023-06-22T13:10:28;21.70;99.90
1055;DHT22;516;51.482;7.120;2023-06-22T13:16:16;22.10;99.90
1055;DHT22;516;51.482;7.120;2023-06-22T13:22:04;22.40;99.90
1055;DHT22;516;51.482;7.120;2023-06-22T13:27:52;22.60;99.90
1055;DHT22;516;51.482;7.120;2023-06-22T13:33:39;22.40;99.90
1055;DHT22;516;51.482;7.120;2023-06-22T13:39:28;22.30;99.90
1055;DHT22;516;51.482;7.120;2023-06-22T13:45:15;22.30;99.90
1055;DHT22;516;51.482;7.120;2023-06-22T13:50:57;22.20;99.90
1055;DHT22;516;51.482;7.120;2023-06-22T13:56:44;22.10;99.90
1055;DHT22;516;51.482;7.120;2023-06-22T14:02:32;22.50;99.90
1055;DHT22;516;51.482;7.120;2023-06-22T14:08:19;23.30;99.90
1055;DHT22;516;51.482;7.120;2023-06-22T14:14:08;22.90;99.90
1055;DHT22;516;51.482;7.120;2023-06-22T14:19:56;22.60;99.90
1055;DHT22;516;51.482;7.120;2023-06-22T14:25:44;22.50;99.90
1055;DHT22;516;51.482;7.120;2023-06-22T14:31:32;22.30;99.90
1055;DHT22;516;51.482;7.120;2023-06-22T14:37:20;22.50;99.90
1055;DHT22;516;51.482;7.120;2023-06-22T14:43:07;22.40;99.90
1055;DHT22;516;51.482;7.120;2023-06-22T14:58:47;22.30;99.90
1055;DHT22;516;51.482;7.120;2023-06-22T15:04:35;22.20;99.90
1055;DHT22;516;51.482;7.120;2023-06-22T15:10:24;21.60;99.90
1055;DHT22;516;51.482;7.120;2023-06-22T15:16:12;21.50;99.90
1055;DHT22;516;51.482;7.120;2023-06-22T15:21:59;21.40;99.90
1055;DHT22;516;51.482;7.120;2023-06-22T15:27:47;21.30;99.90
1055;DHT22;516;51.482;7.120;2023-06-22T15:33:35;21.40;99.90
1055;DHT22;516;51.482;7.120;2023-06-22T15:39:24;21.40;99.90
1055;DHT22;516;51.482;7.120;2023-06-22T15:45:13;21.10;99.90
1055;DHT22;516;51.482;7.120;2023-06-22T15:50:57;20.70;99.90
1055;DHT22;516;51.482;7.120;2023-06-22T15:56:44;20.10;99.90
1055;DHT22;516;51.482;7.120;2023-06-22T16:02:32;19.70;99.90
1055;DHT22;516;51.482;7.120;2023-06-22T16:08:19;19.50;99.90
1055;DHT22;516;51.482;7.120;2023-06-22T16:14:07;19.60;99.90
1055;DHT22;516;51.482;7.120;2023-06-22T16:19:56;19.60;99.90
1055;DHT22;516;51.482;7.120;2023-06-22T16:25:45;19.50;99.90
1055;DHT22;516;51.482;7.120;2023-06-22T16:31:33;19.40;99.90
1055;DHT22;516;51.482;7.120;2023-06-22T16:37:21;19.40;99.90
1055;DHT22;516;51.482;7.120;2023-06-22T16:43:08;19.30;99.90
1055;DHT22;516;51.482;7.120;2023-06-22T16:58:46;19.20;99.90
1055;DHT22;516;51.482;7.120;2023-06-22T17:04:34;19.20;99.90
1055;DHT22;516;51.482;7.120;2023-06-22T17:10:24;19.20;99.90
1055;DHT22;516;51.482;7.120;2023-06-22T17:16:12;19.00;99.90
1055;DHT22;516;51.482;7.120;2023-06-22T17:21:59;19.10;99.90
1055;DHT22;516;51.482;7.120;2023-06-22T17:27:48;19.10;99.90
1055;DHT22;516;51.482;7.120;2023-06-22T17:33:39;19.10;99.90
1055;DHT22;516;51.482;7.120;2023-06-22T17:39:27;19.20;99.90
1055;DHT22;516;51.482;7.120;2023-06-22T17:45:20;19.20;99.90
1055;DHT22;516;51.482;7.120;2023-06-22T17:50:57;19.20;99.90
1055;DHT22;516;51.482;7.120;2023-06-22T17:56:51;19.30;99.90
1055;DHT22;516;51.482;7.120;2023-06-22T18:02:42;19.30;99.90
1055;DHT22;516;51.482;7.120;2023-06-22T18:08:30;19.30;99.90
1055;DHT22;516;51.482;7.120;2023-06-22T18:14:19;19.30;99.90
1055;DHT22;516;51.482;7.120;2023-06-22T18:20:07;19.40;99.90
1055;DHT22;516;51.482;7.120;2023-06-22T18:25:58;19.40;99.90
1055;DHT22;516;51.482;7.120;2023-06-22T18:31:46;19.30;99.90
1055;DHT22;516;51.482;7.120;2023-06-22T18:37:34;19.30;99.90
1055;DHT22;516;51.482;7.120;2023-06-22T18:43:23;19.30;99.90
1055;DHT22;516;51.482;7.120;2023-06-22T18:53:02;19.30;99.90
1055;DHT22;516;51.482;7.120;2023-06-22T18:58:56;19.10;99.90
1055;DHT22;516;51.482;7.120;2023-06-22T19:04:44;19.20;99.90
1055;DHT22;516;51.482;7.120;2023-06-22T19:10:39;19.20;99.90
1055;DHT22;516;51.482;7.120;2023-06-22T19:16:29;19.20;99.90
1055;DHT22;516;51.482;7.120;2023-06-22T19:22:17;19.20;99.90
1055;DHT22;516;51.482;7.120;2023-06-22T19:28:10;19.20;99.90
1055;DHT22;516;51.482;7.120;2023-06-22T19:34:03;19.10;99.90
1055;DHT22;516;51.482;7.120;2023-06-22T19:39:54;19.00;99.90
1055;DHT22;516;51.482;7.120;2023-06-22T19:45:44;19.10;99.90
1055;DHT22;516;51.482;7.120;2023-06-22T19:48:32;19.10;99.90
1055;DHT22;516;51.482;7.120;2023-06-22T19:51:06;19.10;99.90
1055;DHT22;516;51.482;7.120;2023-06-22T19:56:53;19.10;99.90
1055;DHT22;516;51.482;7.120;2023-06-22T20:02:43;19.10;99.90
1055;DHT22;516;51.482;7.120;2023-06-22T20:08:14;19.00;99.90
1055;DHT22;516;51.482;7.120;2023-06-22T20:14:02;18.80;99.90
1055;DHT22;516;51.482;7.120;2023-06-22T20:19:53;18.30;99.90
1055;DHT22;516;51.482;7.120;2023-06-22T20:25:41;17.80;99.90
1055;DHT22;516;51.482;7.120;2023-06-22T20:31:30;17.60;99.90
1055;DHT22;516;51.482;7.120;2023-06-22T20:37:18;17.50;99.90
1055;DHT22;516;51.482;7.120;2023-06-22T20:43:06;17.30;99.90
1055;DHT22;516;51.482;7.120;2023-06-22T20:58:50;17.20;99.90
1055;DHT22;516;51.482;7.120;2023-06-22T21:04:37;17.20;99.90
1055;DHT22;516;51.482;7.120;2023-06-22T21:10:26;17.10;99.90
1055;DHT22;516;51.482;7.120;2023-06-22T21:16:14;16.80;99.90
1055;DHT22;516;51.482;7.120;2023-06-22T21:22:02;16.60;99.90
1055;DHT22;516;51.482;7.120;2023-06-22T21:27:50;16.60;99.90
1055;DHT22;516;51.482;7.120;2023-06-22T21:33:38;16.60;99.90
1055;DHT22;516;51.482;7.120;2023-06-22T21:39:25;16.70;99.90
1055;DHT22;516;51.482;7.120;2023-06-22T21:45:13;16.70;99.90
1055;DHT22;516;51.482;7.120;2023-06-22T21:51:14;16.80;99.90
1055;DHT22;516;51.482;7.120;2023-06-22T21:57:01;16.80;99.90
1055;DHT22;516;51.482;7.120;2023-06-22T22:02:48;16.40;99.90
1055;DHT22;516;51.482;7.120;2023-06-22T22:08:36;16.30;99.90
1055;DHT22;516;51.482;7.120;2023-06-22T22:14:23;16.30;99.90
1055;DHT22;516;51.482;7.120;2023-06-22T22:20:11;16.40;99.90
1055;DHT22;516;51.482;7.120;2023-06-22T22:25:59;16.40;99.90
1055;DHT22;516;51.482;7.120;2023-06-22T22:31:46;16.40;99.90
1055;DHT22;516;51.482;7.120;2023-06-22T22:37:34;16.40;99.90
1055;DHT22;516;51.482;7.120;2023-06-22T22:43:22;16.30;99.90
1055;DHT22;516;51.482;7.120;2023-06-22T22:53:03;16.30;99.90
1055;DHT22;516;51.482;7.120;2023-06-22T22:58:51;16.40;99.90
1055;DHT22;516;51.482;7.120;2023-06-22T23:04:39;16.40;99.90
1055;DHT22;516;51.482;7.120;2023-06-22T23:10:27;16.40;99.90
1055;DHT22;516;51.482;7.120;2023-06-22T23:16:15;16.40;99.90
1055;DHT22;516;51.482;7.120;2023-06-22T23:22:03;16.40;99.90
1055;DHT22;516;51.482;7.120;2023-06-22T23:27:51;16.30;99.90
1055;DHT22;516;51.482;7.120;2023-06-22T23:33:40;16.30;99.90
1055;DHT22;516;51.482;7.120;2023-06-22T23:39:27;16.20;99.90
1055;DHT22;516;51.482;7.120;2023-06-22T23:45:21;16.10;99.90
1055;DHT22;516;51.482;7.120;2023-06-22T23:50:56;16.10;99.90
1055;DHT22;516;51.482;7.120;2023-06-22T23:56:47;16.10;99.90
